Time;durP1;ratioP1;P1;durP2;ratioP2;P2;SDS_P1;SDS_P2;PMS_P1;PMS_P2;Temp;Humidity;BMP_temperature;BMP_pressure;BME280_temperature;BME280_humidity;BME280_pressure;Samples;Min_cycle;Max_cycle;Signal;HPM_P1;HPM_P2
2023/06/06 00:02:22;;;;;;;13.35;7.72;;;10.30;99.90;;;;;;5092975;28;20040;-81
2023/06/06 00:04:49;;;;;;;13.45;7.47;;;10.30;99.90;;;;;;5074477;28;20067;-81
2023/06/06 00:07:16;;;;;;;12.57;8.07;;;10.30;99.90;;;;;;5091932;28;20044;-81
2023/06/06 00:09:43;;;;;;;12.68;6.50;;;10.30;99.90;;;;;;5066328;28;20127;-81
2023/06/06 00:12:12;;;;;;;11.68;7.20;;;10.30;99.90;;;;;;5081778;28;20119;-81
2023/06/06 00:14:41;;;;;;;15.35;7.28;;;10.20;99.90;;;;;;5073822;28;20040;-81
2023/06/06 00:17:09;;;;;;;13.30;7.63;;;10.30;99.90;;;;;;5097445;27;20044;-81
2023/06/06 00:19:38;;;;;;;19.48;7.88;;;10.20;99.90;;;;;;5071926;28;20028;-81
2023/06/06 00:22:04;;;;;;;14.45;7.40;;;10.20;99.90;;;;;;5094254;27;20076;-81
2023/06/06 00:24:30;;;;;;;18.40;8.10;;;10.20;99.90;;;;;;5071518;28;20071;-81
2023/06/06 00:26:55;;;;;;;15.23;8.15;;;10.10;99.90;;;;;;5093314;27;20440;-82
2023/06/06 00:29:21;;;;;;;13.18;8.10;;;10.10;99.90;;;;;;5090109;27;20501;-81
2023/06/06 00:31:47;;;;;;;15.52;8.43;;;10.10;99.90;;;;;;5071203;28;20063;-81
2023/06/06 00:34:12;;;;;;;18.25;8.73;;;10.10;99.90;;;;;;5074126;28;20037;-81
2023/06/06 00:36:38;;;;;;;13.20;8.05;;;10.10;99.90;;;;;;5095247;27;20036;-81
2023/06/06 00:39:04;;;;;;;14.70;7.78;;;10.00;99.90;;;;;;5096143;27;20044;-81
2023/06/06 00:41:29;;;;;;;14.38;8.52;;;10.00;99.90;;;;;;5075918;28;20044;-82
2023/06/06 00:43:55;;;;;;;13.27;8.35;;;10.00;99.90;;;;;;5078026;28;20557;-81
2023/06/06 00:46:21;;;;;;;11.25;7.50;;;10.00;99.90;;;;;;5094877;27;20043;-81
2023/06/06 00:48:47;;;;;;;13.32;7.25;;;10.00;99.90;;;;;;5081751;28;20041;-81
2023/06/06 00:51:13;;;;;;;15.43;8.18;;;10.00;99.90;;;;;;5062602;28;20052;-81
2023/06/06 00:53:39;;;;;;;14.00;7.38;;;9.90;99.90;;;;;;5064421;28;20028;-81
2023/06/06 00:56:06;;;;;;;13.82;8.20;;;9.90;99.90;;;;;;5094030;27;20043;-81
2023/06/06 00:58:32;;;;;;;14.75;7.93;;;9.90;99.90;;;;;;5098199;27;20041;-81
2023/06/06 01:00:58;;;;;;;16.63;7.78;;;9.90;99.90;;;;;;5094372;27;20044;-81
2023/06/06 01:03:24;;;;;;;15.57;7.53;;;9.90;99.90;;;;;;5073566;28;20267;-81
2023/06/06 01:05:55;;;;;;;14.52;7.70;;;10.00;99.90;;;;;;5077704;28;20051;-81
2023/06/06 01:08:22;;;;;;;16.83;8.32;;;10.00;99.90;;;;;;5073673;28;20063;-81
2023/06/06 01:10:50;;;;;;;12.70;7.80;;;9.90;99.90;;;;;;5073487;28;20676;-81
2023/06/06 01:13:26;;;;;;;14.02;7.72;;;9.90;99.90;;;;;;5078285;28;20039;-81
2023/06/06 01:15:59;;;;;;;16.95;8.27;;;9.90;99.90;;;;;;5076096;28;20190;-81
2023/06/06 01:18:25;;;;;;;17.38;7.53;;;9.90;99.90;;;;;;5113144;27;20103;-81
2023/06/06 01:20:51;;;;;;;13.95;7.55;;;9.90;99.90;;;;;;5068376;28;20036;-81
2023/06/06 01:23:18;;;;;;;14.00;6.53;;;9.90;99.90;;;;;;5082949;28;20481;-81
2023/06/06 01:25:48;;;;;;;12.98;7.30;;;9.90;99.90;;;;;;5091705;28;20633;-82
2023/06/06 01:28:17;;;;;;;13.15;7.22;;;9.90;99.90;;;;;;5107160;27;20044;-81
2023/06/06 01:30:44;;;;;;;13.18;7.20;;;9.80;99.90;;;;;;5067422;28;20585;-81
2023/06/06 01:33:29;;;;;;;11.32;7.45;;;9.80;99.90;;;;;;5081032;28;20032;-81
2023/06/06 01:35:54;;;;;;;14.13;7.90;;;9.80;99.90;;;;;;5110045;27;20036;-81
2023/06/06 01:38:24;;;;;;;17.30;7.75;;;9.70;99.90;;;;;;5100739;27;20032;-81
2023/06/06 01:40:52;;;;;;;13.00;7.30;;;9.70;99.90;;;;;;5088443;27;20727;-81
2023/06/06 01:43:22;;;;;;;15.77;7.63;;;9.70;99.90;;;;;;5089451;27;20039;-82
2023/06/06 01:45:49;;;;;;;13.98;7.32;;;9.70;99.90;;;;;;5067780;28;20098;-81
2023/06/06 01:48:16;;;;;;;14.40;7.38;;;9.70;99.90;;;;;;5103831;27;20044;-81
2023/06/06 01:50:43;;;;;;;15.75;7.40;;;9.70;99.90;;;;;;5071994;28;20036;-81
2023/06/06 01:53:09;;;;;;;16.75;7.85;;;9.60;99.90;;;;;;5075069;28;20052;-81
2023/06/06 01:55:36;;;;;;;12.63;7.60;;;9.60;99.90;;;;;;5112878;27;20036;-81
2023/06/06 01:58:03;;;;;;;13.48;7.10;;;9.60;99.90;;;;;;5079984;28;20043;-81
2023/06/06 02:00:29;;;;;;;13.63;7.63;;;9.60;99.90;;;;;;5120628;27;20068;-81
2023/06/06 02:02:55;;;;;;;14.70;8.25;;;9.60;99.90;;;;;;5094983;27;20040;-82
2023/06/06 02:05:21;;;;;;;13.57;7.78;;;9.60;99.90;;;;;;5094735;27;20039;-81
2023/06/06 02:07:49;;;;;;;11.93;7.25;;;9.60;99.90;;;;;;5076918;28;20128;-81
2023/06/06 02:10:15;;;;;;;14.20;8.23;;;9.50;99.90;;;;;;5099276;27;20051;-84
2023/06/06 02:12:41;;;;;;;15.50;7.90;;;9.50;99.90;;;;;;5078205;28;20036;-83
2023/06/06 02:15:09;;;;;;;14.70;7.30;;;9.50;99.90;;;;;;5080749;28;20032;-81
2023/06/06 02:17:35;;;;;;;14.48;8.15;;;9.50;99.90;;;;;;5096701;28;21094;-80
2023/06/06 02:20:04;;;;;;;14.50;7.45;;;9.50;99.90;;;;;;5059732;28;20127;-80
2023/06/06 02:22:29;;;;;;;15.48;7.32;;;9.40;99.90;;;;;;5093451;27;20036;-82
2023/06/06 02:24:55;;;;;;;12.90;7.70;;;9.40;99.90;;;;;;5095599;27;20044;-82
2023/06/06 02:27:21;;;;;;;17.98;9.02;;;9.40;99.90;;;;;;5098800;27;20039;-81
2023/06/06 02:29:47;;;;;;;18.02;8.57;;;9.40;99.90;;;;;;5085587;28;20071;-81
2023/06/06 02:32:13;;;;;;;13.98;7.93;;;9.40;99.90;;;;;;5098955;27;20032;-81
2023/06/06 02:34:39;;;;;;;15.07;8.35;;;9.40;99.90;;;;;;5083596;28;20035;-81
2023/06/06 02:37:08;;;;;;;14.05;8.00;;;9.30;99.90;;;;;;5066330;28;20370;-82
2023/06/06 02:39:35;;;;;;;16.08;7.63;;;9.30;99.90;;;;;;5079491;28;20405;-81
2023/06/06 02:42:01;;;;;;;20.10;8.30;;;9.30;99.90;;;;;;5061173;28;20032;-81
2023/06/06 02:44:27;;;;;;;15.75;8.25;;;9.30;99.90;;;;;;5085619;28;20036;-81
2023/06/06 02:46:53;;;;;;;15.07;8.48;;;9.30;99.90;;;;;;5053120;28;20036;-81
2023/06/06 02:49:19;;;;;;;14.98;8.18;;;9.20;99.90;;;;;;5097456;28;20393;-81
2023/06/06 02:51:46;;;;;;;19.42;9.30;;;9.20;99.90;;;;;;5068754;28;20050;-81
2023/06/06 02:54:12;;;;;;;18.25;9.07;;;9.20;99.90;;;;;;5083752;28;20048;-81
2023/06/06 02:56:37;;;;;;;16.23;8.80;;;9.20;99.90;;;;;;5079012;28;20485;-81
2023/06/06 02:59:03;;;;;;;21.27;9.95;;;9.20;99.90;;;;;;5081633;28;20024;-81
2023/06/06 03:01:30;;;;;;;19.42;9.23;;;9.10;99.90;;;;;;5091013;28;20117;-81
2023/06/06 03:03:56;;;;;;;17.60;9.68;;;9.10;99.90;;;;;;5101101;28;20043;-81
2023/06/06 03:06:22;;;;;;;16.35;9.40;;;9.10;99.90;;;;;;5113183;27;20032;-81
2023/06/06 03:08:49;;;;;;;19.02;10.20;;;9.10;99.90;;;;;;5095222;28;20111;-81
2023/06/06 03:11:16;;;;;;;21.92;10.77;;;9.10;99.90;;;;;;5079607;28;20047;-81
2023/06/06 03:13:45;;;;;;;17.58;10.38;;;9.00;99.90;;;;;;5076133;28;20040;-81
2023/06/06 03:16:13;;;;;;;19.35;11.50;;;9.00;99.90;;;;;;5091764;28;20040;-81
2023/06/06 03:18:39;;;;;;;23.63;10.82;;;9.00;99.90;;;;;;5094141;28;20507;-81
2023/06/06 03:21:05;;;;;;;22.63;12.10;;;9.00;99.90;;;;;;5093620;28;20075;-81
2023/06/06 03:23:30;;;;;;;20.83;12.48;;;9.00;99.90;;;;;;5065261;28;20036;-81
2023/06/06 03:25:56;;;;;;;25.13;12.88;;;9.00;99.90;;;;;;5078216;28;20501;-81
2023/06/06 03:28:22;;;;;;;20.25;11.75;;;9.00;99.90;;;;;;5060224;28;20107;-81
2023/06/06 03:30:48;;;;;;;25.55;14.10;;;9.00;99.90;;;;;;5093211;28;20043;-81
2023/06/06 03:33:15;;;;;;;21.83;13.80;;;9.00;99.90;;;;;;5067133;28;20043;-81
2023/06/06 03:35:41;;;;;;;24.90;14.07;;;9.00;99.90;;;;;;5056778;28;20148;-81
2023/06/06 03:38:07;;;;;;;23.33;14.02;;;9.00;99.90;;;;;;5066267;28;20032;-81
2023/06/06 03:40:33;;;;;;;28.92;14.85;;;9.00;99.90;;;;;;5091830;28;20043;-81
2023/06/06 03:42:59;;;;;;;25.55;15.30;;;9.00;99.90;;;;;;5050673;28;20040;-81
2023/06/06 03:45:24;;;;;;;27.98;15.13;;;9.00;99.90;;;;;;5098105;28;20401;-81
2023/06/06 03:47:51;;;;;;;29.33;15.82;;;9.00;99.90;;;;;;5097091;28;20040;-81
2023/06/06 03:50:21;;;;;;;27.95;17.25;;;9.00;99.90;;;;;;5085908;28;20094;-81
2023/06/06 03:52:47;;;;;;;32.38;18.05;;;9.00;99.90;;;;;;5101946;27;20103;-81
2023/06/06 03:55:13;;;;;;;31.58;16.70;;;9.00;99.90;;;;;;5081529;28;20158;-81
2023/06/06 03:57:40;;;;;;;28.38;15.80;;;9.00;99.90;;;;;;5072319;28;20139;-81
2023/06/06 04:00:13;;;;;;;28.65;16.00;;;9.10;99.90;;;;;;5064419;28;20482;-81
2023/06/06 04:02:39;;;;;;;;;;;9.10;99.90;;;;;;5086705;28;20062;-81
2023/06/06 04:05:05;;;;;;;29.48;17.55;;;9.10;99.90;;;;;;5080930;28;19916;-81
2023/06/06 04:07:32;;;;;;;26.60;17.35;;;9.10;99.90;;;;;;5078464;28;20046;-81
2023/06/06 04:09:58;;;;;;;30.05;17.23;;;9.10;99.90;;;;;;5078303;28;20498;-82
2023/06/06 04:12:24;;;;;;;29.60;15.98;;;9.20;99.90;;;;;;5085392;28;20613;-81
2023/06/06 04:14:50;;;;;;;32.30;16.75;;;9.20;99.90;;;;;;5078214;28;20238;-82
2023/06/06 04:17:15;;;;;;;31.33;15.85;;;9.20;99.90;;;;;;5099708;27;20028;-82
2023/06/06 04:19:41;;;;;;;25.60;15.23;;;9.30;99.90;;;;;;5094834;27;20037;-82
2023/06/06 04:22:07;;;;;;;28.83;14.98;;;9.30;99.90;;;;;;5067517;28;20040;-82
2023/06/06 04:24:33;;;;;;;22.05;13.88;;;9.40;99.90;;;;;;5097459;27;20054;-81
2023/06/06 04:27:03;;;;;;;23.63;13.88;;;9.40;99.90;;;;;;5062765;28;20063;-81
2023/06/06 04:29:32;;;;;;;23.20;13.18;;;9.40;99.90;;;;;;5082171;28;20056;-82
2023/06/06 04:32:02;;;;;;;25.88;12.68;;;9.60;99.90;;;;;;5078768;28;20046;-82
2023/06/06 04:34:31;;;;;;;23.15;12.77;;;9.60;99.90;;;;;;5082119;28;20071;-82
2023/06/06 04:37:04;;;;;;;22.77;12.27;;;9.70;99.90;;;;;;5098985;27;20404;-84
2023/06/06 04:39:31;;;;;;;;;;;9.80;99.90;;;;;;5079697;28;20500;-81
2023/06/06 04:41:58;;;;;;;20.95;12.20;;;9.90;99.90;;;;;;5112359;27;20300;-81
2023/06/06 04:44:27;;;;;;;23.45;12.50;;;9.90;99.90;;;;;;5096183;27;20412;-79
2023/06/06 04:47:00;;;;;;;20.30;10.90;;;10.00;99.90;;;;;;5069138;28;20043;-82
2023/06/06 04:49:39;;;;;;;20.88;11.73;;;10.10;99.90;;;;;;5094232;27;20063;-82
2023/06/06 04:52:08;;;;;;;18.40;10.00;;;10.10;99.90;;;;;;5098491;27;20044;-83
2023/06/06 04:54:38;;;;;;;20.30;9.88;;;10.20;99.90;;;;;;5063958;28;20047;-81
2023/06/06 04:57:07;;;;;;;17.80;10.27;;;10.20;99.90;;;;;;5080837;28;20035;-82
2023/06/06 04:59:33;;;;;;;29.70;10.32;;;10.30;99.90;;;;;;5093476;27;20032;-82
2023/06/06 05:02:01;;;;;;;18.55;8.88;;;10.40;99.90;;;;;;5097614;27;20044;-83
2023/06/06 05:04:29;;;;;;;17.33;9.07;;;10.40;99.90;;;;;;5113253;27;20043;-83
2023/06/06 05:06:56;;;;;;;22.00;9.23;;;10.50;99.90;;;;;;5097835;27;20043;-83
2023/06/06 05:09:21;;;;;;;14.32;9.43;;;10.60;99.90;;;;;;5095319;27;20102;-83
2023/06/06 05:11:49;;;;;;;16.42;8.63;;;10.60;99.90;;;;;;5116092;27;20620;-83
2023/06/06 05:14:23;;;;;;;24.95;9.80;;;10.70;99.90;;;;;;5077349;28;20032;-82
2023/06/06 05:16:53;;;;;;;17.73;8.13;;;10.70;99.90;;;;;;5080576;28;20500;-82
2023/06/06 05:19:19;;;;;;;21.83;8.15;;;10.80;99.90;;;;;;5067053;28;20036;-82
2023/06/06 05:21:45;;;;;;;20.42;9.13;;;10.90;99.90;;;;;;5065717;28;20500;-82
2023/06/06 05:24:11;;;;;;;11.85;7.72;;;10.90;99.90;;;;;;5086037;28;20032;-83
2023/06/06 05:26:36;;;;;;;19.45;7.95;;;10.90;99.90;;;;;;5071272;28;20448;-83
2023/06/06 05:29:02;;;;;;;17.95;7.97;;;11.00;99.90;;;;;;5075352;28;20040;-82
2023/06/06 05:31:28;;;;;;;15.00;7.95;;;11.10;99.90;;;;;;5075634;28;20040;-83
2023/06/06 05:33:55;;;;;;;15.70;7.25;;;11.10;99.90;;;;;;5058428;28;20031;-82
2023/06/06 05:36:21;;;;;;;13.75;8.40;;;11.20;99.90;;;;;;5078844;28;20062;-82
2023/06/06 05:38:46;;;;;;;16.40;8.25;;;11.20;99.90;;;;;;5081433;28;21766;-82
2023/06/06 05:41:15;;;;;;;15.35;7.57;;;11.30;99.90;;;;;;5055563;28;20068;-82
2023/06/06 05:43:45;;;;;;;22.38;8.25;;;11.30;99.90;;;;;;5066464;28;20543;-82
2023/06/06 05:46:11;;;;;;;17.80;7.82;;;11.40;99.90;;;;;;5064603;28;20040;-82
2023/06/06 05:48:37;;;;;;;15.48;7.70;;;11.40;99.90;;;;;;5074944;28;20733;-82
2023/06/06 05:51:03;;;;;;;14.48;8.23;;;11.50;99.90;;;;;;5093699;27;20059;-82
2023/06/06 05:53:29;;;;;;;14.15;8.18;;;11.60;99.90;;;;;;5072491;28;20078;-82
2023/06/06 05:55:54;;;;;;;31.13;9.48;;;11.60;99.90;;;;;;5078242;28;20459;-82
2023/06/06 05:58:20;;;;;;;17.42;7.72;;;11.70;99.90;;;;;;5102490;27;20039;-83
2023/06/06 06:00:46;;;;;;;15.02;6.97;;;11.80;99.90;;;;;;5052227;28;20043;-82
2023/06/06 06:03:14;;;;;;;18.02;7.78;;;11.90;99.90;;;;;;5076241;28;20036;-82
2023/06/06 06:05:40;;;;;;;18.35;7.90;;;12.00;99.90;;;;;;5082530;28;20050;-82
2023/06/06 06:08:06;;;;;;;19.13;8.20;;;12.00;99.90;;;;;;5062365;28;20043;-82
2023/06/06 06:10:34;;;;;;;19.27;8.05;;;12.10;99.90;;;;;;5073475;28;20048;-82
2023/06/06 06:13:01;;;;;;;14.18;7.82;;;12.20;99.90;;;;;;5092723;27;20040;-82
2023/06/06 06:15:31;;;;;;;16.42;7.75;;;12.30;99.90;;;;;;5052115;28;20108;-82
2023/06/06 06:17:57;;;;;;;12.35;7.22;;;12.30;99.90;;;;;;5081620;28;20539;-82
2023/06/06 06:20:23;;;;;;;15.10;7.22;;;12.30;99.90;;;;;;5097771;27;20032;-82
2023/06/06 06:22:49;;;;;;;19.15;7.70;;;12.30;99.90;;;;;;5078209;28;20211;-83
2023/06/06 06:25:18;;;;;;;13.43;7.90;;;12.40;99.90;;;;;;5097429;27;20940;-83
2023/06/06 06:27:45;;;;;;;14.30;6.93;;;12.40;99.90;;;;;;5062664;28;20377;-82
2023/06/06 06:30:12;;;;;;;10.32;6.60;;;12.50;99.90;;;;;;5097496;27;20500;-82
2023/06/06 06:32:40;;;;;;;14.02;6.88;;;12.50;99.90;;;;;;5101738;27;20044;-82
2023/06/06 06:35:06;;;;;;;16.02;7.32;;;12.60;99.90;;;;;;5098379;27;21933;-82
2023/06/06 06:37:33;;;;;;;15.23;7.40;;;12.70;99.90;;;;;;5073448;28;20036;-82
2023/06/06 06:39:59;;;;;;;13.07;6.60;;;12.80;99.90;;;;;;5098595;27;20122;-82
2023/06/06 06:42:26;;;;;;;13.90;6.80;;;12.90;99.90;;;;;;5108412;27;20048;-82
2023/06/06 06:44:52;;;;;;;13.05;6.38;;;13.00;99.90;;;;;;5083544;28;20062;-82
2023/06/06 06:47:18;;;;;;;21.70;6.80;;;13.10;99.90;;;;;;5099413;28;20047;-81
2023/06/06 06:49:44;;;;;;;16.83;7.18;;;13.20;99.90;;;;;;5072759;28;20064;-82
2023/06/06 06:52:15;;;;;;;11.70;6.50;;;13.30;99.90;;;;;;5117689;27;20067;-82
2023/06/06 06:54:53;;;;;;;18.38;6.97;;;13.30;99.90;;;;;;5086800;28;20463;-82
2023/06/06 06:57:20;;;;;;;16.20;6.90;;;13.50;99.90;;;;;;5094076;28;20478;-82
2023/06/06 06:59:47;;;;;;;20.77;7.00;;;13.60;99.90;;;;;;5080355;28;20040;-82
2023/06/06 07:02:12;;;;;;;16.40;6.63;;;13.70;99.90;;;;;;5082445;28;20143;-81
2023/06/06 07:04:39;;;;;;;13.35;6.60;;;13.80;99.90;;;;;;5048950;28;20538;-82
2023/06/06 07:07:06;;;;;;;14.38;6.18;;;13.90;99.90;;;;;;5085878;28;20035;-81
2023/06/06 07:09:32;;;;;;;14.52;6.97;;;14.10;99.90;;;;;;5088281;28;20051;-81
2023/06/06 07:11:58;;;;;;;13.32;6.43;;;14.20;99.90;;;;;;5065196;28;20035;-81
2023/06/06 07:14:25;;;;;;;10.45;5.95;;;14.40;99.90;;;;;;5101363;27;20031;-79
2023/06/06 07:16:51;;;;;;;12.60;6.47;;;14.50;99.90;;;;;;5062208;28;20147;-80
2023/06/06 07:19:17;;;;;;;14.10;6.70;;;14.70;99.90;;;;;;5068390;28;20040;-80
2023/06/06 07:21:43;;;;;;;15.40;6.47;;;14.80;99.90;;;;;;5052804;28;20043;-83
2023/06/06 07:24:09;;;;;;;37.05;8.93;;;14.90;99.90;;;;;;5054530;28;20039;-83
2023/06/06 07:26:35;;;;;;;12.27;6.45;;;15.00;99.90;;;;;;5088606;28;20056;-82
2023/06/06 07:29:01;;;;;;;11.43;6.63;;;15.10;99.90;;;;;;5071647;28;20112;-82
2023/06/06 07:31:27;;;;;;;21.75;6.78;;;15.10;99.90;;;;;;5088485;27;20598;-82
2023/06/06 07:33:53;;;;;;;16.25;5.93;;;15.10;99.90;;;;;;5079126;28;20034;-82
2023/06/06 07:36:19;;;;;;;11.52;5.68;;;15.20;99.90;;;;;;5038293;28;20024;-83
2023/06/06 07:38:44;;;;;;;10.20;5.43;;;15.30;99.90;;;;;;5086457;28;20040;-83
2023/06/06 07:41:10;;;;;;;10.75;5.70;;;15.30;99.90;;;;;;5088634;28;20043;-82
2023/06/06 07:43:36;;;;;;;11.95;6.25;;;15.40;99.90;;;;;;5061907;28;20100;-81
2023/06/06 07:46:02;;;;;;;13.98;5.70;;;15.50;99.90;;;;;;5075338;28;20036;-82
2023/06/06 07:48:27;;;;;;;13.93;6.18;;;15.60;99.90;;;;;;5091172;28;20481;-82
2023/06/06 07:50:54;;;;;;;13.27;5.85;;;15.70;99.90;;;;;;5069947;28;20048;-82
2023/06/06 07:53:20;;;;;;;13.57;5.90;;;15.80;99.90;;;;;;5089075;28;20116;-82
2023/06/06 07:55:47;;;;;;;11.70;5.72;;;16.00;99.90;;;;;;5058477;28;20028;-82
2023/06/06 07:58:12;;;;;;;16.58;6.20;;;16.10;99.90;;;;;;5106544;28;20074;-82
2023/06/06 08:00:42;;;;;;;10.05;5.30;;;16.20;99.90;;;;;;5089918;28;20044;-82
2023/06/06 08:03:09;;;;;;;10.35;5.60;;;16.40;99.90;;;;;;5075209;28;20040;-82
2023/06/06 08:05:36;;;;;;;6.95;4.30;;;16.60;99.90;;;;;;5094861;28;20036;-82
2023/06/06 08:08:02;;;;;;;13.35;5.30;;;16.60;99.90;;;;;;5091540;28;20446;-83
2023/06/06 08:10:28;;;;;;;98.13;11.63;;;16.80;99.90;;;;;;5094625;28;20576;-82
2023/06/06 08:12:54;;;;;;;14.43;5.30;;;16.90;99.90;;;;;;5077711;28;20040;-83
2023/06/06 08:15:20;;;;;;;11.68;5.43;;;17.00;99.90;;;;;;5086276;28;20042;-82
2023/06/06 08:17:45;;;;;;;27.20;6.43;;;17.10;99.90;;;;;;5092611;28;20198;-83
2023/06/06 08:20:11;;;;;;;12.00;5.28;;;17.10;99.90;;;;;;5055484;28;20558;-82
2023/06/06 08:22:37;;;;;;;17.27;5.30;;;17.20;99.90;;;;;;5071375;28;20529;-82
2023/06/06 08:25:07;;;;;;;12.88;6.22;;;17.30;99.90;;;;;;5099376;28;20497;-83
2023/06/06 08:27:34;;;;;;;52.47;7.05;;;17.40;99.90;;;;;;5091162;28;20032;-83
2023/06/06 08:30:00;;;;;;;25.10;6.97;;;17.50;99.90;;;;;;5075544;28;20048;-82
2023/06/06 08:32:27;;;;;;;14.90;5.47;;;17.60;99.90;;;;;;5090358;28;20040;-83
2023/06/06 08:34:54;;;;;;;18.10;5.70;;;17.60;99.90;;;;;;5073956;28;20043;-82
2023/06/06 08:37:19;;;;;;;12.15;5.32;;;17.70;99.90;;;;;;5090908;28;20036;-82
2023/06/06 08:39:47;;;;;;;11.52;5.78;;;17.90;99.90;;;;;;5091406;28;20070;-83
2023/06/06 08:42:17;;;;;;;11.70;5.50;;;18.00;99.90;;;;;;5106707;28;20504;-83
2023/06/06 08:44:43;;;;;;;8.60;5.13;;;18.10;99.90;;;;;;5079837;28;20561;-83
2023/06/06 08:47:11;;;;;;;7.97;5.15;;;18.10;99.90;;;;;;5074357;28;20047;-82
2023/06/06 08:49:37;;;;;;;11.48;5.82;;;18.20;99.90;;;;;;5073794;28;20540;-82
2023/06/06 08:52:07;;;;;;;11.15;5.20;;;18.30;99.90;;;;;;5083066;28;20045;-82
2023/06/06 08:54:33;;;;;;;7.80;5.13;;;18.40;99.90;;;;;;5074009;28;20043;-83
2023/06/06 08:57:07;;;;;;;11.95;5.22;;;18.40;99.90;;;;;;5067914;28;20586;-82
2023/06/06 08:59:37;;;;;;;16.35;5.50;;;18.50;99.90;;;;;;5099147;28;20094;-83
2023/06/06 09:02:07;;;;;;;17.33;5.13;;;18.70;99.90;;;;;;5089679;28;20043;-82
2023/06/06 09:04:34;;;;;;;26.85;6.05;;;18.80;99.90;;;;;;5107099;28;20047;-82
2023/06/06 09:07:08;;;;;;;9.40;5.43;;;18.90;99.90;;;;;;5090255;28;20184;-82
2023/06/06 09:09:38;;;;;;;14.35;6.53;;;19.00;99.90;;;;;;5096182;28;20059;-82
2023/06/06 09:12:09;;;;;;;12.52;5.50;;;19.10;99.90;;;;;;5082429;28;20044;-83
2023/06/06 09:14:35;;;;;;;10.35;5.55;;;19.20;99.90;;;;;;5090515;28;20040;-82
2023/06/06 09:17:01;;;;;;;18.33;5.93;;;19.20;99.90;;;;;;5089995;28;20960;-83
2023/06/06 09:19:29;;;;;;;10.60;5.72;;;19.30;99.90;;;;;;5073327;28;20484;-82
2023/06/06 09:21:58;;;;;;;12.20;5.40;;;19.40;99.90;;;;;;5107153;28;20091;-84
2023/06/06 09:24:24;;;;;;;10.05;5.68;;;19.40;99.90;;;;;;5073261;28;20472;-84
2023/06/06 09:26:50;;;;;;;7.43;5.13;;;19.50;99.90;;;;;;5106534;28;20126;-83
2023/06/06 09:29:16;;;;;;;9.43;5.60;;;19.60;99.90;;;;;;5090014;28;20174;-83
2023/06/06 09:31:42;;;;;;;10.40;4.60;;;19.70;99.90;;;;;;5107062;28;20040;-83
2023/06/06 09:34:09;;;;;;;7.70;4.78;;;19.80;99.90;;;;;;5106911;28;20132;-83
2023/06/06 09:36:37;;;;;;;9.73;5.07;;;20.00;99.90;;;;;;5055826;28;20143;-83
2023/06/06 09:39:12;;;;;;;9.60;5.57;;;20.10;99.90;;;;;;5117890;27;20118;-83
2023/06/06 09:41:42;;;;;;;12.68;5.70;;;20.20;99.90;;;;;;5072534;28;20379;-82
2023/06/06 09:44:21;;;;;;;21.15;6.38;;;20.30;99.90;;;;;;5072151;28;20074;-83
2023/06/06 09:46:58;;;;;;;11.77;5.50;;;20.40;99.90;;;;;;5093187;28;20116;-82
2023/06/06 09:49:24;;;;;;;10.38;5.35;;;20.50;99.90;;;;;;5106508;28;20040;-82
2023/06/06 09:51:53;;;;;;;10.48;5.50;;;20.50;99.90;;;;;;5106675;28;20066;-83
2023/06/06 09:54:21;;;;;;;10.75;5.43;;;20.50;99.90;;;;;;5089751;28;20062;-83
2023/06/06 09:56:47;;;;;;;12.23;5.43;;;20.60;99.90;;;;;;5072051;28;20040;-83
2023/06/06 09:59:14;;;;;;;8.93;5.80;;;20.70;99.90;;;;;;5064876;28;20101;-83
2023/06/06 10:01:42;;;;;;;11.85;5.68;;;20.80;99.00;;;;;;5089880;28;20563;-82
2023/06/06 10:04:09;;;;;;;16.23;6.35;;;20.90;99.80;;;;;;5074807;28;20036;-85
2023/06/06 10:06:37;;;;;;;10.85;6.03;;;20.80;99.10;;;;;;5040993;28;20036;-83
2023/06/06 10:09:06;;;;;;;9.93;5.25;;;20.90;99.50;;;;;;5088245;28;20032;-83
2023/06/06 10:11:36;;;;;;;10.45;5.22;;;21.00;98.80;;;;;;5090185;28;20098;-84
2023/06/06 10:14:10;;;;;;;14.18;5.97;;;21.00;98.80;;;;;;5105558;28;20032;-84
2023/06/06 10:16:36;;;;;;;15.30;6.15;;;21.20;98.70;;;;;;5080926;28;20044;-83
2023/06/06 10:19:03;;;;;;;18.50;6.03;;;21.40;98.80;;;;;;5089802;28;20756;-83
2023/06/06 10:21:30;;;;;;;12.10;5.82;;;21.40;98.30;;;;;;5088851;28;20049;-84
2023/06/06 10:23:56;;;;;;;20.48;6.55;;;21.50;98.30;;;;;;5066842;28;21736;-83
2023/06/06 10:26:31;;;;;;;12.43;5.75;;;21.50;97.50;;;;;;5064115;28;20029;-80
2023/06/06 10:29:09;;;;;;;18.23;6.82;;;21.60;97.90;;;;;;5068075;28;20027;-80
2023/06/06 10:31:50;;;;;;;11.35;4.72;;;21.80;97.70;;;;;;5085655;28;20310;-81
2023/06/06 10:34:24;;;;;;;10.00;5.60;;;22.00;97.60;;;;;;5087448;28;20047;-83
2023/06/06 10:36:51;;;;;;;10.18;5.15;;;22.00;97.20;;;;;;5066357;28;20039;-81
2023/06/06 10:39:25;;;;;;;13.57;6.35;;;22.20;97.00;;;;;;5078448;28;20150;-80
2023/06/06 10:41:54;;;;;;;13.63;5.90;;;22.30;96.20;;;;;;5103706;27;20071;-80
2023/06/06 10:44:36;;;;;;;16.15;5.55;;;22.50;96.50;;;;;;5072656;28;20036;-81
2023/06/06 10:47:27;;;;;;;8.57;5.32;;;22.50;95.40;;;;;;5104186;27;20035;-81
2023/06/06 10:50:11;;;;;;;10.80;5.43;;;22.50;94.90;;;;;;5063944;28;20131;-82
2023/06/06 10:53:06;;;;;;;8.93;5.40;;;22.50;94.90;;;;;;5101517;27;20043;-80
2023/06/06 10:55:32;;;;;;;9.90;5.43;;;22.60;95.40;;;;;;5105767;28;20066;-81
2023/06/06 10:58:07;;;;;;;14.30;5.32;;;22.80;94.80;;;;;;5077591;28;20032;-81
2023/06/06 11:00:35;;;;;;;12.85;5.28;;;22.80;94.70;;;;;;5079495;28;20036;-81
2023/06/06 11:03:05;;;;;;;12.85;5.38;;;22.80;95.00;;;;;;5061386;28;20076;-81
2023/06/06 11:05:31;;;;;;;12.57;5.53;;;22.90;95.10;;;;;;5097968;28;20485;-81
2023/06/06 11:08:01;;;;;;;14.82;6.10;;;22.90;93.90;;;;;;5071890;28;20111;-81
2023/06/06 11:10:27;;;;;;;8.65;5.38;;;22.90;94.30;;;;;;5086195;28;20044;-81
2023/06/06 11:12:54;;;;;;;16.42;5.53;;;23.00;94.10;;;;;;5104913;28;20511;-81
2023/06/06 11:15:55;;;;;;;29.05;6.97;;;23.00;94.10;;;;;;5071911;28;20036;-81
2023/06/06 11:18:39;;;;;;;11.90;5.22;;;23.20;92.50;;;;;;5063713;28;20039;-82
2023/06/06 11:21:05;;;;;;;12.05;5.28;;;23.30;93.20;;;;;;5080830;28;20083;-81
2023/06/06 11:23:41;;;;;;;10.30;4.85;;;23.30;93.50;;;;;;5101972;28;20105;-81
2023/06/06 11:26:10;;;;;;;8.82;5.00;;;23.30;92.90;;;;;;5097843;28;20040;-81
2023/06/06 11:28:37;;;;;;;9.57;5.45;;;23.40;92.50;;;;;;5072166;28;20529;-82
2023/06/06 11:31:03;;;;;;;10.77;5.25;;;23.50;92.70;;;;;;5089258;28;20113;-82
2023/06/06 11:33:28;;;;;;;9.95;5.28;;;23.50;92.90;;;;;;5070957;28;20548;-82
2023/06/06 11:35:55;;;;;;;7.82;5.32;;;23.50;92.90;;;;;;5074288;28;20127;-83
2023/06/06 11:38:21;;;;;;;15.35;5.85;;;23.50;93.10;;;;;;5071858;28;20036;-83
2023/06/06 11:40:47;;;;;;;10.13;5.45;;;23.50;92.70;;;;;;5076162;28;20044;-81
2023/06/06 11:43:13;;;;;;;24.02;7.05;;;23.70;92.40;;;;;;5080381;28;20154;-82
2023/06/06 11:45:39;;;;;;;7.85;4.72;;;23.70;92.20;;;;;;5105945;28;20047;-81
2023/06/06 11:48:27;;;;;;;15.18;6.57;;;23.80;92.50;;;;;;5088218;28;20042;-83
2023/06/06 11:50:52;;;;;;;14.00;5.90;;;23.70;91.70;;;;;;5071050;28;20044;-82
2023/06/06 11:53:33;;;;;;;13.98;6.35;;;23.80;92.40;;;;;;5079243;28;20040;-82
2023/06/06 11:55:59;;;;;;;9.00;5.43;;;23.80;92.00;;;;;;5120468;27;20047;-82
2023/06/06 11:58:26;;;;;;;11.20;5.38;;;23.90;91.90;;;;;;5082703;28;20036;-82
2023/06/06 12:00:55;;;;;;;9.13;5.63;;;24.00;92.10;;;;;;5090494;28;20508;-82
2023/06/06 12:03:22;;;;;;;9.13;5.38;;;24.10;91.90;;;;;;5064766;28;20060;-82
2023/06/06 12:06:04;;;;;;;24.60;7.03;;;24.10;91.60;;;;;;5087937;28;20047;-82
2023/06/06 12:08:33;;;;;;;40.53;6.53;;;23.90;91.10;;;;;;5057498;28;20047;-81
2023/06/06 12:11:29;;;;;;;9.48;5.55;;;23.90;91.70;;;;;;5103808;28;20051;-81
2023/06/06 12:13:56;;;;;;;14.50;5.68;;;23.90;91.50;;;;;;5091081;28;20048;-82
2023/06/06 12:16:29;;;;;;;16.05;6.03;;;23.90;91.70;;;;;;5091463;28;20036;-81
2023/06/06 12:18:55;;;;;;;9.40;5.18;;;24.00;91.40;;;;;;5076935;28;20067;-81
2023/06/06 12:21:21;;;;;;;11.57;5.15;;;24.10;91.70;;;;;;5090828;28;20036;-81
2023/06/06 12:23:48;;;;;;;12.30;5.32;;;24.20;91.50;;;;;;5090588;28;20515;-82
2023/06/06 12:26:18;;;;;;;41.17;6.65;;;24.20;91.30;;;;;;5105936;27;20039;-81
2023/06/06 12:28:58;;;;;;;17.45;6.00;;;24.10;91.40;;;;;;5070954;28;20036;-82
2023/06/06 12:31:24;;;;;;;11.32;5.00;;;24.10;90.90;;;;;;5069316;28;20127;-82
2023/06/06 12:33:56;;;;;;;11.20;4.50;;;24.10;91.50;;;;;;5054313;28;20434;-83
2023/06/06 12:36:24;;;;;;;10.23;5.77;;;24.20;91.10;;;;;;5086986;28;20707;-79
2023/06/06 12:38:56;;;;;;;60.90;8.77;;;24.30;91.50;;;;;;5073053;28;20032;-80
2023/06/06 12:41:22;;;;;;;39.05;7.60;;;24.30;91.20;;;;;;5088630;28;20120;-81
2023/06/06 12:43:48;;;;;;;11.35;5.55;;;24.40;91.40;;;;;;5077168;28;20097;-81
2023/06/06 12:46:13;;;;;;;9.38;5.40;;;24.30;90.20;;;;;;5058310;28;20079;-80